sensor_id;sensor_type;location;lat;lon;timestamp;P1;durP1;ratioP1;P2;durP2;ratioP2
50585;SDS011;36542;51.700;8.846;2023-11-21T00:00:54;16.27;;;9.40;;
50585;SDS011;36542;51.700;8.846;2023-11-21T00:03:20;19.27;;;9.50;;
50585;SDS011;36542;51.700;8.846;2023-11-21T00:05:48;22.37;;;9.90;;
50585;SDS011;36542;51.700;8.846;2023-11-21T00:08:13;21.23;;;10.17;;
50585;SDS011;36542;51.700;8.846;2023-11-21T00:10:39;20.57;;;8.90;;
50585;SDS011;36542;51.700;8.846;2023-11-21T00:13:04;21.83;;;9.37;;
50585;SDS011;36542;51.700;8.846;2023-11-21T00:15:30;20.70;;;9.70;;
50585;SDS011;36542;51.700;8.846;2023-11-21T00:17:55;25.00;;;9.73;;
50585;SDS011;36542;51.700;8.846;2023-11-21T00:20:21;18.60;;;8.80;;
50585;SDS011;36542;51.700;8.846;2023-11-21T00:22:46;22.87;;;9.23;;
50585;SDS011;36542;51.700;8.846;2023-11-21T00:25:12;19.10;;;8.77;;
50585;SDS011;36542;51.700;8.846;2023-11-21T00:27:40;21.43;;;9.83;;
50585;SDS011;36542;51.700;8.846;2023-11-21T00:30:06;23.70;;;10.37;;
50585;SDS011;36542;51.700;8.846;2023-11-21T00:32:33;19.90;;;10.43;;
50585;SDS011;36542;51.700;8.846;2023-11-21T00:35:00;24.40;;;10.37;;
50585;SDS011;36542;51.700;8.846;2023-11-21T00:37:26;23.03;;;10.03;;
50585;SDS011;36542;51.700;8.846;2023-11-21T00:39:51;20.07;;;10.77;;
50585;SDS011;36542;51.700;8.846;2023-11-21T00:42:17;20.47;;;10.63;;
50585;SDS011;36542;51.700;8.846;2023-11-21T00:44:42;20.80;;;10.37;;
50585;SDS011;36542;51.700;8.846;2023-11-21T00:47:08;21.90;;;10.43;;
50585;SDS011;36542;51.700;8.846;2023-11-21T00:49:33;24.90;;;10.60;;
50585;SDS011;36542;51.700;8.846;2023-11-21T00:51:59;24.53;;;10.90;;
50585;SDS011;36542;51.700;8.846;2023-11-21T00:54:25;22.90;;;10.03;;
50585;SDS011;36542;51.700;8.846;2023-11-21T00:56:51;24.13;;;11.07;;
50585;SDS011;36542;51.700;8.846;2023-11-21T00:59:17;18.80;;;9.90;;
50585;SDS011;36542;51.700;8.846;2023-11-21T01:01:42;19.03;;;10.30;;
50585;SDS011;36542;51.700;8.846;2023-11-21T01:04:09;19.20;;;10.33;;
50585;SDS011;36542;51.700;8.846;2023-11-21T01:06:34;26.30;;;11.87;;
50585;SDS011;36542;51.700;8.846;2023-11-21T01:09:00;22.77;;;11.73;;
50585;SDS011;36542;51.700;8.846;2023-11-21T01:11:26;24.63;;;11.00;;
50585;SDS011;36542;51.700;8.846;2023-11-21T01:13:51;23.83;;;11.50;;
50585;SDS011;36542;51.700;8.846;2023-11-21T01:16:18;19.17;;;10.63;;
50585;SDS011;36542;51.700;8.846;2023-11-21T01:18:43;21.63;;;11.60;;
50585;SDS011;36542;51.700;8.846;2023-11-21T01:21:09;26.67;;;10.90;;
50585;SDS011;36542;51.700;8.846;2023-11-21T01:23:35;19.90;;;9.83;;
50585;SDS011;36542;51.700;8.846;2023-11-21T01:26:00;20.23;;;9.80;;
50585;SDS011;36542;51.700;8.846;2023-11-21T01:28:25;17.43;;;10.23;;
50585;SDS011;36542;51.700;8.846;2023-11-21T01:30:51;22.17;;;10.20;;
50585;SDS011;36542;51.700;8.846;2023-11-21T01:33:18;25.53;;;9.67;;
50585;SDS011;36542;51.700;8.846;2023-11-21T01:35:43;23.97;;;10.87;;
50585;SDS011;36542;51.700;8.846;2023-11-21T01:38:09;25.90;;;11.33;;
50585;SDS011;36542;51.700;8.846;2023-11-21T01:40:35;20.33;;;10.30;;
50585;SDS011;36542;51.700;8.846;2023-11-21T01:43:00;23.27;;;10.13;;
50585;SDS011;36542;51.700;8.846;2023-11-21T01:45:28;23.43;;;11.13;;
50585;SDS011;36542;51.700;8.846;2023-11-21T01:47:56;25.27;;;11.90;;
50585;SDS011;36542;51.700;8.846;2023-11-21T01:50:21;20.93;;;10.87;;
50585;SDS011;36542;51.700;8.846;2023-11-21T01:52:47;19.93;;;9.97;;
50585;SDS011;36542;51.700;8.846;2023-11-21T01:55:14;25.40;;;11.20;;
50585;SDS011;36542;51.700;8.846;2023-11-21T01:57:45;24.57;;;11.83;;
50585;SDS011;36542;51.700;8.846;2023-11-21T02:00:11;23.43;;;13.00;;
50585;SDS011;36542;51.700;8.846;2023-11-21T02:02:46;29.33;;;12.17;;
50585;SDS011;36542;51.700;8.846;2023-11-21T02:05:13;25.57;;;11.33;;
50585;SDS011;36542;51.700;8.846;2023-11-21T02:07:43;25.00;;;11.13;;
50585;SDS011;36542;51.700;8.846;2023-11-21T02:10:09;23.57;;;11.20;;
50585;SDS011;36542;51.700;8.846;2023-11-21T02:12:34;24.73;;;12.03;;
50585;SDS011;36542;51.700;8.846;2023-11-21T02:15:03;29.20;;;11.80;;
50585;SDS011;36542;51.700;8.846;2023-11-21T02:17:34;25.33;;;11.30;;
50585;SDS011;36542;51.700;8.846;2023-11-21T02:20:02;26.13;;;11.13;;
50585;SDS011;36542;51.700;8.846;2023-11-21T02:22:31;27.70;;;13.57;;
50585;SDS011;36542;51.700;8.846;2023-11-21T02:25:03;33.43;;;13.83;;
50585;SDS011;36542;51.700;8.846;2023-11-21T02:27:29;33.70;;;14.20;;
50585;SDS011;36542;51.700;8.846;2023-11-21T02:29:55;48.87;;;18.73;;
50585;SDS011;36542;51.700;8.846;2023-11-21T02:32:20;45.63;;;17.40;;
50585;SDS011;36542;51.700;8.846;2023-11-21T02:34:47;37.57;;;17.07;;
50585;SDS011;36542;51.700;8.846;2023-11-21T02:37:13;36.13;;;16.33;;
50585;SDS011;36542;51.700;8.846;2023-11-21T02:39:39;52.13;;;19.33;;
50585;SDS011;36542;51.700;8.846;2023-11-21T02:42:04;78.13;;;23.40;;
50585;SDS011;36542;51.700;8.846;2023-11-21T02:44:30;77.30;;;23.03;;
50585;SDS011;36542;51.700;8.846;2023-11-21T02:46:56;68.90;;;23.13;;
50585;SDS011;36542;51.700;8.846;2023-11-21T02:49:22;84.63;;;23.87;;
50585;SDS011;36542;51.700;8.846;2023-11-21T02:51:48;75.07;;;23.47;;
50585;SDS011;36542;51.700;8.846;2023-11-21T02:54:13;65.80;;;23.60;;
50585;SDS011;36542;51.700;8.846;2023-11-21T02:56:39;63.07;;;22.23;;
50585;SDS011;36542;51.700;8.846;2023-11-21T02:59:05;80.87;;;25.30;;
50585;SDS011;36542;51.700;8.846;2023-11-21T03:01:30;79.63;;;24.97;;
50585;SDS011;36542;51.700;8.846;2023-11-21T03:03:56;73.33;;;23.07;;
50585;SDS011;36542;51.700;8.846;2023-11-21T03:06:22;66.47;;;21.97;;
50585;SDS011;36542;51.700;8.846;2023-11-21T03:08:48;60.30;;;22.50;;
50585;SDS011;36542;51.700;8.846;2023-11-21T03:11:14;80.17;;;23.93;;
50585;SDS011;36542;51.700;8.846;2023-11-21T03:13:40;92.63;;;26.90;;
50585;SDS011;36542;51.700;8.846;2023-11-21T03:16:09;92.20;;;27.37;;
50585;SDS011;36542;51.700;8.846;2023-11-21T03:18:36;102.20;;;27.47;;
50585;SDS011;36542;51.700;8.846;2023-11-21T03:21:02;90.80;;;27.77;;
50585;SDS011;36542;51.700;8.846;2023-11-21T03:23:28;98.33;;;27.67;;
50585;SDS011;36542;51.700;8.846;2023-11-21T03:25:53;98.17;;;29.17;;
50585;SDS011;36542;51.700;8.846;2023-11-21T03:28:19;91.13;;;29.37;;
50585;SDS011;36542;51.700;8.846;2023-11-21T03:30:44;81.27;;;27.57;;
50585;SDS011;36542;51.700;8.846;2023-11-21T03:33:10;89.33;;;26.77;;
50585;SDS011;36542;51.700;8.846;2023-11-21T03:35:35;86.73;;;26.47;;
50585;SDS011;36542;51.700;8.846;2023-11-21T03:38:01;88.73;;;27.27;;
50585;SDS011;36542;51.700;8.846;2023-11-21T03:40:27;82.20;;;26.30;;
50585;SDS011;36542;51.700;8.846;2023-11-21T03:42:52;81.73;;;25.60;;
50585;SDS011;36542;51.700;8.846;2023-11-21T03:45:18;93.27;;;26.50;;
50585;SDS011;36542;51.700;8.846;2023-11-21T03:47:44;96.43;;;26.03;;
50585;SDS011;36542;51.700;8.846;2023-11-21T03:50:09;85.63;;;24.70;;
50585;SDS011;36542;51.700;8.846;2023-11-21T03:52:35;92.57;;;25.27;;
50585;SDS011;36542;51.700;8.846;2023-11-21T03:55:01;124.17;;;29.03;;
50585;SDS011;36542;51.700;8.846;2023-11-21T03:57:27;184.93;;;35.03;;
50585;SDS011;36542;51.700;8.846;2023-11-21T03:59:53;161.30;;;34.03;;
50585;SDS011;36542;51.700;8.846;2023-11-21T04:02:19;155.40;;;38.27;;
50585;SDS011;36542;51.700;8.846;2023-11-21T04:04:44;159.07;;;37.17;;
50585;SDS011;36542;51.700;8.846;2023-11-21T04:07:10;188.60;;;40.17;;
50585;SDS011;36542;51.700;8.846;2023-11-21T04:09:36;159.60;;;39.43;;
50585;SDS011;36542;51.700;8.846;2023-11-21T04:12:01;161.70;;;38.27;;
50585;SDS011;36542;51.700;8.846;2023-11-21T04:14:27;196.03;;;43.13;;
50585;SDS011;36542;51.700;8.846;2023-11-21T04:16:53;193.90;;;41.73;;
50585;SDS011;36542;51.700;8.846;2023-11-21T04:19:19;165.23;;;39.07;;
50585;SDS011;36542;51.700;8.846;2023-11-21T04:21:44;199.80;;;41.53;;
50585;SDS011;36542;51.700;8.846;2023-11-21T04:24:10;170.33;;;40.37;;
50585;SDS011;36542;51.700;8.846;2023-11-21T04:26:36;139.37;;;36.43;;
50585;SDS011;36542;51.700;8.846;2023-11-21T04:29:02;232.17;;;42.87;;
50585;SDS011;36542;51.700;8.846;2023-11-21T04:31:27;180.07;;;38.97;;
50585;SDS011;36542;51.700;8.846;2023-11-21T04:33:53;197.40;;;39.53;;
50585;SDS011;36542;51.700;8.846;2023-11-21T04:36:18;163.87;;;37.30;;
50585;SDS011;36542;51.700;8.846;2023-11-21T04:38:44;210.27;;;40.93;;
50585;SDS011;36542;51.700;8.846;2023-11-21T04:41:10;213.17;;;41.30;;
50585;SDS011;36542;51.700;8.846;2023-11-21T04:43:36;189.27;;;38.53;;
50585;SDS011;36542;51.700;8.846;2023-11-21T04:46:02;225.03;;;43.03;;
50585;SDS011;36542;51.700;8.846;2023-11-21T04:48:28;188.00;;;41.07;;
50585;SDS011;36542;51.700;8.846;2023-11-21T04:50:53;248.77;;;46.43;;
50585;SDS011;36542;51.700;8.846;2023-11-21T04:53:19;267.47;;;45.37;;
50585;SDS011;36542;51.700;8.846;2023-11-21T04:55:44;177.17;;;39.63;;
50585;SDS011;36542;51.700;8.846;2023-11-21T04:58:10;183.00;;;40.20;;
50585;SDS011;36542;51.700;8.846;2023-11-21T05:00:37;218.47;;;41.77;;
50585;SDS011;36542;51.700;8.846;2023-11-21T05:03:03;212.57;;;43.03;;
50585;SDS011;36542;51.700;8.846;2023-11-21T05:05:29;201.57;;;42.33;;
50585;SDS011;36542;51.700;8.846;2023-11-21T05:07:55;201.53;;;39.80;;
50585;SDS011;36542;51.700;8.846;2023-11-21T05:10:20;170.60;;;38.90;;
50585;SDS011;36542;51.700;8.846;2023-11-21T05:12:47;204.17;;;39.20;;
50585;SDS011;36542;51.700;8.846;2023-11-21T05:15:15;175.37;;;38.53;;
50585;SDS011;36542;51.700;8.846;2023-11-21T05:17:42;161.40;;;37.20;;
50585;SDS011;36542;51.700;8.846;2023-11-21T05:20:11;163.57;;;39.70;;
50585;SDS011;36542;51.700;8.846;2023-11-21T05:22:38;152.33;;;36.63;;
50585;SDS011;36542;51.700;8.846;2023-11-21T05:25:05;142.80;;;36.93;;
50585;SDS011;36542;51.700;8.846;2023-11-21T05:27:32;134.80;;;37.10;;
50585;SDS011;36542;51.700;8.846;2023-11-21T05:29:58;130.60;;;31.30;;
50585;SDS011;36542;51.700;8.846;2023-11-21T05:32:26;147.50;;;33.73;;
50585;SDS011;36542;51.700;8.846;2023-11-21T05:34:52;159.83;;;34.07;;
50585;SDS011;36542;51.700;8.846;2023-11-21T05:37:18;175.37;;;36.43;;
50585;SDS011;36542;51.700;8.846;2023-11-21T05:39:43;141.77;;;37.40;;
50585;SDS011;36542;51.700;8.846;2023-11-21T05:42:09;165.63;;;36.77;;
50585;SDS011;36542;51.700;8.846;2023-11-21T05:44:35;181.27;;;38.73;;
50585;SDS011;36542;51.700;8.846;2023-11-21T05:47:02;159.93;;;38.27;;
50585;SDS011;36542;51.700;8.846;2023-11-21T05:49:28;156.90;;;39.00;;
50585;SDS011;36542;51.700;8.846;2023-11-21T05:51:54;156.43;;;38.87;;
50585;SDS011;36542;51.700;8.846;2023-11-21T05:54:20;163.00;;;40.33;;
50585;SDS011;36542;51.700;8.846;2023-11-21T05:56:46;179.80;;;38.77;;
50585;SDS011;36542;51.700;8.846;2023-11-21T05:59:12;155.00;;;37.20;;
50585;SDS011;36542;51.700;8.846;2023-11-21T06:01:37;181.57;;;39.33;;
50585;SDS011;36542;51.700;8.846;2023-11-21T06:04:04;145.07;;;35.33;;
50585;SDS011;36542;51.700;8.846;2023-11-21T06:06:30;158.57;;;36.97;;
50585;SDS011;36542;51.700;8.846;2023-11-21T06:08:56;140.03;;;34.93;;
50585;SDS011;36542;51.700;8.846;2023-11-21T06:11:22;135.77;;;37.37;;
50585;SDS011;36542;51.700;8.846;2023-11-21T06:13:47;148.70;;;36.23;;
50585;SDS011;36542;51.700;8.846;2023-11-21T06:16:13;140.13;;;35.87;;
50585;SDS011;36542;51.700;8.846;2023-11-21T06:18:41;140.47;;;35.53;;
50585;SDS011;36542;51.700;8.846;2023-11-21T06:21:09;185.60;;;40.70;;
50585;SDS011;36542;51.700;8.846;2023-11-21T06:23:34;195.57;;;38.80;;
50585;SDS011;36542;51.700;8.846;2023-11-21T06:26:00;195.80;;;40.37;;
50585;SDS011;36542;51.700;8.846;2023-11-21T06:28:26;153.27;;;38.97;;
50585;SDS011;36542;51.700;8.846;2023-11-21T06:30:51;136.40;;;38.37;;
50585;SDS011;36542;51.700;8.846;2023-11-21T06:33:18;102.10;;;34.13;;
50585;SDS011;36542;51.700;8.846;2023-11-21T06:35:44;104.93;;;33.93;;
50585;SDS011;36542;51.700;8.846;2023-11-21T06:38:09;99.27;;;35.10;;
50585;SDS011;36542;51.700;8.846;2023-11-21T06:40:35;96.67;;;34.63;;
50585;SDS011;36542;51.700;8.846;2023-11-21T06:43:01;94.57;;;35.03;;
50585;SDS011;36542;51.700;8.846;2023-11-21T06:45:26;89.47;;;33.57;;
50585;SDS011;36542;51.700;8.846;2023-11-21T06:47:52;101.30;;;34.33;;
50585;SDS011;36542;51.700;8.846;2023-11-21T06:50:18;88.43;;;33.97;;
50585;SDS011;36542;51.700;8.846;2023-11-21T06:52:43;98.60;;;34.10;;
50585;SDS011;36542;51.700;8.846;2023-11-21T06:55:09;92.90;;;34.23;;
50585;SDS011;36542;51.700;8.846;2023-11-21T06:57:35;91.40;;;35.03;;
50585;SDS011;36542;51.700;8.846;2023-11-21T07:00:00;77.93;;;33.77;;
50585;SDS011;36542;51.700;8.846;2023-11-21T07:02:26;85.30;;;33.93;;
50585;SDS011;36542;51.700;8.846;2023-11-21T07:04:53;98.23;;;34.53;;
50585;SDS011;36542;51.700;8.846;2023-11-21T07:07:18;84.30;;;33.43;;
50585;SDS011;36542;51.700;8.846;2023-11-21T07:09:44;84.47;;;34.47;;
50585;SDS011;36542;51.700;8.846;2023-11-21T07:12:10;82.37;;;32.30;;
50585;SDS011;36542;51.700;8.846;2023-11-21T07:14:36;90.73;;;33.93;;
50585;SDS011;36542;51.700;8.846;2023-11-21T07:17:04;89.20;;;33.40;;
50585;SDS011;36542;51.700;8.846;2023-11-21T07:19:29;76.33;;;31.00;;
50585;SDS011;36542;51.700;8.846;2023-11-21T07:21:55;75.53;;;31.77;;
50585;SDS011;36542;51.700;8.846;2023-11-21T07:24:21;84.00;;;34.20;;
50585;SDS011;36542;51.700;8.846;2023-11-21T07:26:47;94.57;;;33.83;;
50585;SDS011;36542;51.700;8.846;2023-11-21T07:29:13;89.07;;;36.17;;
50585;SDS011;36542;51.700;8.846;2023-11-21T07:31:39;97.30;;;37.87;;
50585;SDS011;36542;51.700;8.846;2023-11-21T07:34:06;93.70;;;37.57;;
50585;SDS011;36542;51.700;8.846;2023-11-21T07:36:32;122.23;;;38.10;;
50585;SDS011;36542;51.700;8.846;2023-11-21T07:38:58;103.07;;;38.60;;
50585;SDS011;36542;51.700;8.846;2023-11-21T07:41:23;131.40;;;41.93;;
50585;SDS011;36542;51.700;8.846;2023-11-21T07:43:49;135.30;;;45.37;;
50585;SDS011;36542;51.700;8.846;2023-11-21T07:46:14;142.27;;;49.10;;
50585;SDS011;36542;51.700;8.846;2023-11-21T07:48:40;174.23;;;51.57;;
50585;SDS011;36542;51.700;8.846;2023-11-21T07:51:11;222.13;;;56.47;;
50585;SDS011;36542;51.700;8.846;2023-11-21T07:53:38;235.03;;;58.40;;
50585;SDS011;36542;51.700;8.846;2023-11-21T07:56:04;187.73;;;52.57;;
50585;SDS011;36542;51.700;8.846;2023-11-21T07:58:32;240.93;;;57.97;;
50585;SDS011;36542;51.700;8.846;2023-11-21T08:00:58;276.43;;;60.60;;
50585;SDS011;36542;51.700;8.846;2023-11-21T08:03:24;349.57;;;68.90;;
50585;SDS011;36542;51.700;8.846;2023-11-21T08:05:51;287.33;;;63.10;;
50585;SDS011;36542;51.700;8.846;2023-11-21T08:08:17;347.57;;;65.93;;
50585;SDS011;36542;51.700;8.846;2023-11-21T08:10:43;243.23;;;60.10;;
50585;SDS011;36542;51.700;8.846;2023-11-21T08:13:21;283.40;;;62.70;;
50585;SDS011;36542;51.700;8.846;2023-11-21T08:15:47;350.97;;;64.63;;
50585;SDS011;36542;51.700;8.846;2023-11-21T08:18:13;378.93;;;66.30;;
50585;SDS011;36542;51.700;8.846;2023-11-21T08:20:39;371.57;;;69.37;;
50585;SDS011;36542;51.700;8.846;2023-11-21T08:23:05;224.33;;;54.40;;
50585;SDS011;36542;51.700;8.846;2023-11-21T08:25:31;201.20;;;49.90;;
50585;SDS011;36542;51.700;8.846;2023-11-21T08:27:57;261.03;;;54.53;;
50585;SDS011;36542;51.700;8.846;2023-11-21T08:30:23;431.70;;;67.23;;
50585;SDS011;36542;51.700;8.846;2023-11-21T08:32:49;409.10;;;63.20;;
50585;SDS011;36542;51.700;8.846;2023-11-21T08:35:17;374.03;;;64.90;;
50585;SDS011;36542;51.700;8.846;2023-11-21T08:37:42;203.70;;;49.70;;
50585;SDS011;36542;51.700;8.846;2023-11-21T08:40:08;179.70;;;47.93;;
50585;SDS011;36542;51.700;8.846;2023-11-21T08:42:34;259.97;;;52.17;;
50585;SDS011;36542;51.700;8.846;2023-11-21T08:45:00;165.03;;;45.97;;
50585;SDS011;36542;51.700;8.846;2023-11-21T08:47:26;163.47;;;44.03;;
50585;SDS011;36542;51.700;8.846;2023-11-21T08:49:52;129.47;;;44.40;;
50585;SDS011;36542;51.700;8.846;2023-11-21T08:52:18;87.83;;;37.07;;
50585;SDS011;36542;51.700;8.846;2023-11-21T08:54:47;125.50;;;40.73;;
50585;SDS011;36542;51.700;8.846;2023-11-21T08:57:13;153.47;;;42.60;;
50585;SDS011;36542;51.700;8.846;2023-11-21T08:59:39;113.43;;;39.80;;
50585;SDS011;36542;51.700;8.846;2023-11-21T09:02:04;135.80;;;40.67;;
50585;SDS011;36542;51.700;8.846;2023-11-21T09:04:30;280.43;;;49.13;;
50585;SDS011;36542;51.700;8.846;2023-11-21T09:06:56;214.53;;;45.27;;
50585;SDS011;36542;51.700;8.846;2023-11-21T09:09:24;350.73;;;55.77;;
50585;SDS011;36542;51.700;8.846;2023-11-21T09:11:50;351.13;;;54.90;;
50585;SDS011;36542;51.700;8.846;2023-11-21T09:14:16;302.77;;;47.80;;
50585;SDS011;36542;51.700;8.846;2023-11-21T09:16:42;393.37;;;62.00;;
50585;SDS011;36542;51.700;8.846;2023-11-21T09:19:08;212.70;;;41.83;;
50585;SDS011;36542;51.700;8.846;2023-11-21T09:21:34;307.30;;;52.23;;
50585;SDS011;36542;51.700;8.846;2023-11-21T09:24:00;302.87;;;48.90;;
50585;SDS011;36542;51.700;8.846;2023-11-21T09:26:26;408.40;;;56.43;;
50585;SDS011;36542;51.700;8.846;2023-11-21T09:28:52;481.13;;;67.17;;
50585;SDS011;36542;51.700;8.846;2023-11-21T09:31:18;360.77;;;54.20;;
50585;SDS011;36542;51.700;8.846;2023-11-21T09:33:47;442.90;;;57.50;;
50585;SDS011;36542;51.700;8.846;2023-11-21T09:36:13;148.37;;;38.10;;
50585;SDS011;36542;51.700;8.846;2023-11-21T09:38:39;102.37;;;37.37;;
50585;SDS011;36542;51.700;8.846;2023-11-21T09:41:06;75.73;;;31.20;;
50585;SDS011;36542;51.700;8.846;2023-11-21T09:43:46;88.47;;;33.53;;
50585;SDS011;36542;51.700;8.846;2023-11-21T09:46:12;72.50;;;30.97;;
50585;SDS011;36542;51.700;8.846;2023-11-21T09:48:44;90.13;;;32.73;;
50585;SDS011;36542;51.700;8.846;2023-11-21T09:51:13;83.47;;;32.27;;
50585;SDS011;36542;51.700;8.846;2023-11-21T09:53:38;71.77;;;32.23;;
50585;SDS011;36542;51.700;8.846;2023-11-21T09:56:11;104.83;;;33.83;;
50585;SDS011;36542;51.700;8.846;2023-11-21T09:58:38;142.70;;;38.07;;
50585;SDS011;36542;51.700;8.846;2023-11-21T10:01:04;238.17;;;44.17;;
50585;SDS011;36542;51.700;8.846;2023-11-21T10:03:34;293.50;;;48.53;;
50585;SDS011;36542;51.700;8.846;2023-11-21T10:06:01;134.30;;;36.27;;
50585;SDS011;36542;51.700;8.846;2023-11-21T10:08:28;110.63;;;33.37;;
50585;SDS011;36542;51.700;8.846;2023-11-21T10:10:54;490.23;;;63.00;;
50585;SDS011;36542;51.700;8.846;2023-11-21T10:13:21;235.37;;;42.53;;
50585;SDS011;36542;51.700;8.846;2023-11-21T10:15:50;304.17;;;46.63;;
50585;SDS011;36542;51.700;8.846;2023-11-21T10:18:17;520.23;;;69.23;;
50585;SDS011;36542;51.700;8.846;2023-11-21T10:20:44;644.37;;;76.67;;
50585;SDS011;36542;51.700;8.846;2023-11-21T10:23:16;576.10;;;72.50;;
50585;SDS011;36542;51.700;8.846;2023-11-21T10:25:43;588.90;;;70.57;;
50585;SDS011;36542;51.700;8.846;2023-11-21T10:28:09;591.70;;;74.30;;
50585;SDS011;36542;51.700;8.846;2023-11-21T10:30:36;465.90;;;61.20;;
50585;SDS011;36542;51.700;8.846;2023-11-21T10:33:03;566.00;;;70.03;;
50585;SDS011;36542;51.700;8.846;2023-11-21T10:35:39;642.83;;;79.07;;
50585;SDS011;36542;51.700;8.846;2023-11-21T10:38:11;595.20;;;73.03;;
50585;SDS011;36542;51.700;8.846;2023-11-21T10:40:38;641.00;;;79.47;;
50585;SDS011;36542;51.700;8.846;2023-11-21T10:43:11;603.03;;;81.53;;
50585;SDS011;36542;51.700;8.846;2023-11-21T10:45:38;559.70;;;75.87;;
50585;SDS011;36542;51.700;8.846;2023-11-21T10:48:05;530.90;;;74.23;;
50585;SDS011;36542;51.700;8.846;2023-11-21T10:50:33;476.40;;;63.27;;
50585;SDS011;36542;51.700;8.846;2023-11-21T10:53:01;589.93;;;77.83;;
50585;SDS011;36542;51.700;8.846;2023-11-21T10:55:30;630.60;;;81.97;;
50585;SDS011;36542;51.700;8.846;2023-11-21T10:58:01;667.53;;;80.37;;
50585;SDS011;36542;51.700;8.846;2023-11-21T11:00:28;571.03;;;74.10;;
50585;SDS011;36542;51.700;8.846;2023-11-21T11:02:55;588.23;;;73.93;;
50585;SDS011;36542;51.700;8.846;2023-11-21T11:05:21;609.33;;;77.17;;
50585;SDS011;36542;51.700;8.846;2023-11-21T11:07:56;630.83;;;83.83;;
50585;SDS011;36542;51.700;8.846;2023-11-21T11:10:26;438.60;;;69.70;;
50585;SDS011;36542;51.700;8.846;2023-11-21T11:12:54;589.07;;;73.30;;
50585;SDS011;36542;51.700;8.846;2023-11-21T11:15:21;536.47;;;76.00;;
50585;SDS011;36542;51.700;8.846;2023-11-21T11:17:46;544.20;;;75.77;;
50585;SDS011;36542;51.700;8.846;2023-11-21T11:20:14;594.30;;;84.13;;
50585;SDS011;36542;51.700;8.846;2023-11-21T11:25:55;586.97;;;85.17;;
50585;SDS011;36542;51.700;8.846;2023-11-21T11:31:57;566.67;;;74.37;;
50585;SDS011;36542;51.700;8.846;2023-11-21T11:34:33;576.73;;;78.63;;
50585;SDS011;36542;51.700;8.846;2023-11-21T11:37:03;584.30;;;82.37;;
50585;SDS011;36542;51.700;8.846;2023-11-21T11:39:30;549.73;;;77.57;;
50585;SDS011;36542;51.700;8.846;2023-11-21T11:42:02;633.10;;;83.30;;
50585;SDS011;36542;51.700;8.846;2023-11-21T11:49:57;501.03;;;66.33;;
50585;SDS011;36542;51.700;8.846;2023-11-21T11:52:31;494.27;;;74.63;;
50585;SDS011;36542;51.700;8.846;2023-11-21T11:54:58;95.40;;;35.50;;
50585;SDS011;36542;51.700;8.846;2023-11-21T11:57:24;175.00;;;43.63;;
50585;SDS011;36542;51.700;8.846;2023-11-21T12:02:59;135.93;;;42.20;;
50585;SDS011;36542;51.700;8.846;2023-11-21T12:05:29;98.90;;;36.93;;
50585;SDS011;36542;51.700;8.846;2023-11-21T12:07:59;97.03;;;32.43;;
50585;SDS011;36542;51.700;8.846;2023-11-21T12:10:26;61.63;;;24.10;;
50585;SDS011;36542;51.700;8.846;2023-11-21T12:13:06;45.53;;;18.37;;
50585;SDS011;36542;51.700;8.846;2023-11-21T12:15:32;40.23;;;16.20;;
50585;SDS011;36542;51.700;8.846;2023-11-21T12:17:58;35.27;;;15.43;;
50585;SDS011;36542;51.700;8.846;2023-11-21T12:20:24;34.77;;;14.97;;
50585;SDS011;36542;51.700;8.846;2023-11-21T12:22:52;35.53;;;15.77;;
50585;SDS011;36542;51.700;8.846;2023-11-21T12:25:25;30.53;;;14.20;;
50585;SDS011;36542;51.700;8.846;2023-11-21T12:27:56;28.07;;;14.43;;
50585;SDS011;36542;51.700;8.846;2023-11-21T12:30:23;16.90;;;8.87;;
50585;SDS011;36542;51.700;8.846;2023-11-21T12:32:53;12.10;;;7.20;;
50585;SDS011;36542;51.700;8.846;2023-11-21T12:35:21;12.40;;;8.00;;
50585;SDS011;36542;51.700;8.846;2023-11-21T12:37:48;13.13;;;8.13;;
50585;SDS011;36542;51.700;8.846;2023-11-21T12:40:15;10.83;;;7.17;;
50585;SDS011;36542;51.700;8.846;2023-11-21T12:42:42;10.30;;;7.20;;
50585;SDS011;36542;51.700;8.846;2023-11-21T12:45:30;12.03;;;7.33;;
50585;SDS011;36542;51.700;8.846;2023-11-21T12:48:05;10.80;;;6.87;;
50585;SDS011;36542;51.700;8.846;2023-11-21T12:50:36;11.17;;;7.50;;
50585;SDS011;36542;51.700;8.846;2023-11-21T12:53:03;9.67;;;6.97;;
50585;SDS011;36542;51.700;8.846;2023-11-21T12:55:41;11.43;;;8.20;;
50585;SDS011;36542;51.700;8.846;2023-11-21T12:58:15;11.27;;;8.30;;
50585;SDS011;36542;51.700;8.846;2023-11-21T13:00:47;10.83;;;7.53;;
50585;SDS011;36542;51.700;8.846;2023-11-21T13:03:14;11.43;;;7.73;;
50585;SDS011;36542;51.700;8.846;2023-11-21T13:05:48;9.07;;;6.60;;
50585;SDS011;36542;51.700;8.846;2023-11-21T13:08:16;8.30;;;6.10;;
50585;SDS011;36542;51.700;8.846;2023-11-21T13:10:45;7.03;;;5.83;;
50585;SDS011;36542;51.700;8.846;2023-11-21T13:13:13;9.17;;;6.87;;
50585;SDS011;36542;51.700;8.846;2023-11-21T13:15:50;9.13;;;6.93;;
50585;SDS011;36542;51.700;8.846;2023-11-21T13:18:23;12.43;;;7.17;;
50585;SDS011;36542;51.700;8.846;2023-11-21T13:20:52;8.67;;;6.57;;
50585;SDS011;36542;51.700;8.846;2023-11-21T13:23:18;9.83;;;6.53;;
50585;SDS011;36542;51.700;8.846;2023-11-21T13:25:43;10.40;;;6.97;;
50585;SDS011;36542;51.700;8.846;2023-11-21T13:28:12;12.20;;;6.63;;
50585;SDS011;36542;51.700;8.846;2023-11-21T13:30:40;14.10;;;6.97;;
50585;SDS011;36542;51.700;8.846;2023-11-21T13:33:07;13.10;;;7.87;;
50585;SDS011;36542;51.700;8.846;2023-11-21T13:35:37;16.73;;;7.73;;
50585;SDS011;36542;51.700;8.846;2023-11-21T13:38:14;10.93;;;7.53;;
50585;SDS011;36542;51.700;8.846;2023-11-21T13:40:48;9.83;;;6.87;;
50585;SDS011;36542;51.700;8.846;2023-11-21T13:43:18;13.37;;;8.57;;
50585;SDS011;36542;51.700;8.846;2023-11-21T13:45:49;12.63;;;8.47;;
50585;SDS011;36542;51.700;8.846;2023-11-21T13:48:20;13.10;;;8.60;;
50585;SDS011;36542;51.700;8.846;2023-11-21T13:50:53;11.63;;;8.40;;
50585;SDS011;36542;51.700;8.846;2023-11-21T13:53:24;11.50;;;8.43;;
50585;SDS011;36542;51.700;8.846;2023-11-21T13:55:50;11.47;;;8.30;;
50585;SDS011;36542;51.700;8.846;2023-11-21T13:58:19;10.70;;;8.00;;
50585;SDS011;36542;51.700;8.846;2023-11-21T14:00:47;13.70;;;8.40;;
50585;SDS011;36542;51.700;8.846;2023-11-21T14:03:20;13.27;;;9.00;;
50585;SDS011;36542;51.700;8.846;2023-11-21T14:05:47;18.57;;;10.40;;
50585;SDS011;36542;51.700;8.846;2023-11-21T14:08:17;14.23;;;10.13;;
50585;SDS011;36542;51.700;8.846;2023-11-21T14:10:49;17.30;;;10.70;;
50585;SDS011;36542;51.700;8.846;2023-11-21T14:13:18;16.37;;;11.00;;
50585;SDS011;36542;51.700;8.846;2023-11-21T14:15:48;16.93;;;10.33;;
50585;SDS011;36542;51.700;8.846;2023-11-21T14:18:16;16.30;;;11.17;;
50585;SDS011;36542;51.700;8.846;2023-11-21T14:20:42;20.00;;;11.57;;
50585;SDS011;36542;51.700;8.846;2023-11-21T14:23:09;19.33;;;12.10;;
50585;SDS011;36542;51.700;8.846;2023-11-21T14:25:35;18.90;;;12.53;;
50585;SDS011;36542;51.700;8.846;2023-11-21T14:28:02;20.97;;;12.60;;
50585;SDS011;36542;51.700;8.846;2023-11-21T14:30:28;15.73;;;10.23;;
50585;SDS011;36542;51.700;8.846;2023-11-21T14:32:56;16.17;;;11.23;;